Time;durP1;ratioP1;P1;durP2;ratioP2;P2;SDS_P1;SDS_P2;PMS_P1;PMS_P2;Temp;Humidity;BMP_temperature;BMP_pressure;BME280_temperature;BME280_humidity;BME280_pressure;Samples;Min_cycle;Max_cycle;Signal;HPM_P1;HPM_P2
2021/07/27 00:02:15;;;;;;;;;15.75;15.00;;;;;24.78;48.46;100817.53;5078190;27;56081;-46
2021/07/27 00:04:41;;;;;;;;;14.75;14.75;;;;;24.79;48.04;100813.06;5078644;28;45319;-45
2021/07/27 00:07:06;;;;;;;;;13.00;11.50;;;;;24.78;48.17;100809.56;5078767;28;45348;-46
2021/07/27 00:09:31;;;;;;;;;17.00;15.00;;;;;24.76;48.01;100811.47;5079125;28;45541;-48
2021/07/27 00:11:57;;;;;;;;;12.50;12.50;;;;;24.78;48.07;100816.66;5078459;28;45254;-46
2021/07/27 00:14:22;;;;;;;;;13.75;13.50;;;;;24.78;48.11;100816.66;5078292;28;45337;-46
2021/07/27 00:16:47;;;;;;;;;14.50;11.25;;;;;24.77;48.14;100814.97;5078316;27;45308;-47
2021/07/27 00:19:13;;;;;;;;;12.75;11.50;;;;;24.75;47.92;100804.50;5078684;28;45545;-46
2021/07/27 00:21:38;;;;;;;;;17.00;15.00;;;;;24.75;48.45;100804.50;5078234;28;46123;-46
2021/07/27 00:24:04;;;;;;;;;0.00;0.00;;;;;24.74;48.37;100804.63;5078667;28;45447;-45
2021/07/27 00:26:29;;;;;;;;;16.50;15.50;;;;;24.72;47.96;100802.06;5078538;27;45359;-45
2021/07/27 00:28:54;;;;;;;;;14.00;13.75;;;;;24.72;47.89;100799.41;5078576;28;45435;-48
2021/07/27 00:31:20;;;;;;;;;13.50;11.75;;;;;24.70;47.64;100796.88;5078029;27;46087;-46
2021/07/27 00:33:48;;;;;;;;;14.75;13.00;;;;;24.70;48.17;100790.72;5078066;28;45317;-45
2021/07/27 00:36:14;;;;;;;;;15.50;12.50;;;;;24.70;48.04;100790.72;5078207;28;45463;-45
2021/07/27 00:38:39;;;;;;;;;13.25;12.00;;;;;24.69;47.85;100792.53;5078340;28;45484;-46
2021/07/27 00:41:05;;;;;;;;;13.50;12.50;;;;;24.69;48.08;100792.53;5077955;27;50660;-44
2021/07/27 00:43:30;;;;;;;;;13.25;13.00;;;;;24.69;48.27;100783.75;5078347;28;45484;-46
2021/07/27 00:45:56;;;;;;;;;16.75;12.00;;;;;24.68;47.77;100782.88;5078105;27;45460;-46
2021/07/27 00:48:22;;;;;;;;;17.00;16.00;;;;;24.67;48.31;100786.47;5060060;28;45533;-48
2021/07/27 00:50:48;;;;;;;;;13.25;12.25;;;;;24.67;48.14;100785.63;5077740;28;46059;-46
2021/07/27 00:53:14;;;;;;;;;15.50;13.25;;;;;24.62;47.69;100785.13;5077082;27;45383;-45
2021/07/27 00:55:40;;;;;;;;;16.75;13.75;;;;;24.57;47.99;100777.50;5078051;28;45328;-48
2021/07/27 00:58:05;;;;;;;;;16.75;14.00;;;;;24.54;48.46;100775.94;5078605;28;45605;-47
2021/07/27 01:00:31;;;;;;;;;14.50;12.75;;;;;24.55;48.05;100776.78;5077973;27;45493;-46
2021/07/27 01:02:57;;;;;;;;;14.75;13.75;;;;;24.55;48.19;100785.59;5077614;28;45363;-45
2021/07/27 01:05:24;;;;;;;;;12.50;11.25;;;;;24.57;48.48;100782.81;5077786;28;45422;-44
2021/07/27 01:07:50;;;;;;;;;13.75;13.25;;;;;24.57;48.42;100782.81;5077951;27;45320;-45
2021/07/27 01:10:16;;;;;;;;;13.25;12.75;;;;;24.55;48.33;100785.59;5077445;28;45490;-47
2021/07/27 01:12:44;;;;;;;;;8.50;8.50;;;;;24.56;48.57;100783.75;5077772;28;45813;-48
2021/07/27 01:15:09;;;;;;;;;12.50;12.25;;;;;24.55;48.59;100787.38;5077658;28;45344;-45
2021/07/27 01:17:35;;;;;;;;;11.50;10.00;;;;;24.56;48.70;100786.41;5093862;27;45542;-44
2021/07/27 01:42:06;;;;;;;;;14.75;14.00;;;;;24.48;48.50;100765.78;5077001;28;46009;-49
2021/07/27 01:44:43;;;;;;;;;12.50;12.50;;;;;24.48;48.47;100767.59;5077127;28;45235;-46
2021/07/27 01:47:09;;;;;;;;;15.50;12.00;;;;;24.47;48.86;100763.25;5077282;28;45333;-45
2021/07/27 01:49:34;;;;;;;;;16.50;13.50;;;;;24.48;48.76;100780.84;5077556;28;45225;-43
2021/07/27 01:52:00;;;;;;;;;14.50;12.50;;;;;24.48;48.98;100764.94;5076792;28;45335;-46
2021/07/27 01:54:29;;;;;;;;;13.75;13.75;;;;;24.49;48.66;100769.28;5076818;28;45234;-45
2021/07/27 01:56:55;;;;;;;;;16.00;13.00;;;;;24.48;48.63;100759.66;5076892;28;45426;-45
2021/07/27 01:59:20;;;;;;;;;12.50;11.25;;;;;24.48;48.47;100760.47;5077187;28;45399;-45
2021/07/27 02:01:46;;;;;;;;;11.50;10.50;;;;;24.48;48.48;100759.66;5076391;28;57213;-44
2021/07/27 02:04:12;;;;;;;;;11.50;10.00;;;;;24.49;48.76;100756.03;5076772;28;45312;-45
2021/07/27 02:06:40;;;;;;;;;15.00;12.00;;;;;24.50;48.97;100757.72;5076008;28;45282;-47
2021/07/27 02:09:06;;;;;;;;;11.00;11.00;;;;;24.51;49.07;100756.78;5077356;27;45704;-45
2021/07/27 02:11:43;;;;;;;;;16.25;14.50;;;;;24.50;48.50;100755.09;5075277;28;46044;-46
2021/07/27 02:14:12;;;;;;;;;15.25;14.00;;;;;24.49;49.05;100750.75;5076819;28;45339;-45
2021/07/27 02:16:38;;;;;;;;;18.25;12.75;;;;;24.49;48.61;100750.75;5077018;27;45230;-43
2021/07/27 02:19:04;;;;;;;;;13.50;13.00;;;;;24.48;49.13;100754.34;5076885;27;45229;-45
2021/07/27 02:21:29;;;;;;;;;17.25;13.50;;;;;24.49;49.08;100753.38;5076549;27;47029;-46
2021/07/27 02:23:55;;;;;;;;;9.00;9.00;;;;;24.49;49.11;100756.03;5076365;27;45459;-44
2021/07/27 02:26:22;;;;;;;;;15.50;13.75;;;;;24.49;49.13;100756.03;5076431;28;45220;-45
2021/07/27 02:28:47;;;;;;;;;17.25;13.75;;;;;24.47;49.12;100750.00;5076744;28;45425;-45
2021/07/27 02:31:18;;;;;;;;;11.00;10.75;;;;;24.49;49.13;100753.38;5076467;28;46297;-42
2021/07/27 02:33:43;;;;;;;;;14.00;13.00;;;;;24.48;48.74;100749.03;5076404;28;45339;-47
2021/07/27 02:36:08;;;;;;;;;13.75;11.75;;;;;24.49;49.01;100745.44;5076890;28;45398;-48
2021/07/27 02:38:34;;;;;;;;;12.50;11.50;;;;;24.50;49.12;100747.97;5076717;28;45289;-45
2021/07/27 02:41:02;;;;;;;;;12.25;12.25;;;;;24.50;49.05;100741.84;5079637;28;50195;-46
2021/07/27 02:43:31;;;;;;;;;10.25;10.00;;;;;24.49;48.55;100740.13;5080020;27;45382;-47
2021/07/27 02:45:56;;;;;;;;;11.50;10.00;;;;;24.49;49.14;100740.13;5080080;27;45411;-46
2021/07/27 02:48:22;;;;;;;;;14.25;13.00;;;;;24.48;49.08;100741.94;5079170;27;50999;-47
2021/07/27 02:50:57;;;;;;;;;16.25;11.50;;;;;24.48;49.06;100749.88;5079726;27;46153;-47
2021/07/27 02:53:24;;;;;;;;;16.00;14.25;;;;;24.48;48.92;100735.81;5079758;28;45376;-45
2021/07/27 02:55:50;;;;;;;;;11.75;11.00;;;;;24.48;48.79;100741.09;5079736;28;45349;-47
2021/07/27 02:58:15;;;;;;;;;15.25;13.00;;;;;24.47;49.20;100748.22;5079944;27;45400;-45
2021/07/27 03:00:40;;;;;;;;;12.67;12.67;;;;;24.47;49.00;100744.69;5079888;28;46335;-46
2021/07/27 03:03:06;;;;;;;;;14.75;13.50;;;;;24.46;48.97;100737.72;5079595;28;45628;-45
2021/07/27 03:05:31;;;;;;;;;13.00;12.00;;;;;24.46;48.62;100745.66;5095368;27;45417;-44
2021/07/27 03:07:58;;;;;;;;;14.75;13.00;;;;;24.44;48.78;100750.22;5079893;28;45446;-50
2021/07/27 03:10:24;;;;;;;;;12.75;12.50;;;;;24.42;49.04;100730.97;5079392;28;46675;-46
2021/07/27 03:12:54;;;;;;;;;13.50;12.50;;;;;24.43;48.91;100733.50;5079499;27;45862;-51
2021/07/27 03:15:25;;;;;;;;;12.75;12.00;;;;;24.45;49.02;100728.06;5079632;28;45462;-44
2021/07/27 03:17:54;;;;;;;;;14.50;11.75;;;;;24.45;48.85;100733.38;5079661;27;45319;-44
2021/07/27 03:20:21;;;;;;;;;14.25;13.00;;;;;24.45;48.83;100728.06;5079254;28;45981;-44
2021/07/27 03:22:46;;;;;;;;;12.75;11.00;;;;;24.46;48.89;100732.41;5079180;28;45843;-45
2021/07/27 03:25:17;;;;;;;;;14.50;13.50;;;;;24.44;49.18;100718.44;5079661;27;45386;-43
2021/07/27 03:27:43;;;;;;;;;12.75;12.50;;;;;24.44;49.42;100715.78;5079654;28;45485;-45
2021/07/27 03:30:10;;;;;;;;;13.00;13.00;;;;;24.44;48.78;100715.78;5079569;28;45402;-45
2021/07/27 03:32:35;;;;;;;;;16.25;14.00;;;;;24.43;49.36;100719.38;5079183;28;45684;-47
2021/07/27 03:35:01;;;;;;;;;15.00;13.75;;;;;24.43;49.10;100711.44;5079336;27;45633;-47
2021/07/27 03:37:26;;;;;;;;;11.50;10.75;;;;;24.41;49.00;100711.56;5079400;27;45548;-45
2021/07/27 03:39:51;;;;;;;;;12.25;12.25;;;;;24.41;49.35;100705.44;5079111;28;46044;-48
2021/07/27 03:42:17;;;;;;;;;12.00;10.75;;;;;24.42;49.22;100704.47;5078674;27;53534;-46
2021/07/27 03:44:42;;;;;;;;;13.75;13.00;;;;;24.38;48.86;100696.75;5079382;28;45422;-46
2021/07/27 03:47:08;;;;;;;;;14.00;11.25;;;;;24.38;49.26;100702.03;5078861;27;45635;-45
2021/07/27 03:49:33;;;;;;;;;11.75;11.00;;;;;24.32;49.06;100696.34;5078339;28;46540;-48
2021/07/27 03:52:04;;;;;;;;;12.25;12.25;;;;;24.30;49.10;100688.53;5078715;28;45378;-43
2021/07/27 03:54:31;;;;;;;;;17.00;14.25;;;;;24.30;49.06;100688.53;5078903;28;45282;-44
2021/07/27 03:56:57;;;;;;;;;16.00;13.25;;;;;24.27;49.51;100696.69;5079068;28;45410;-48
2021/07/27 03:59:22;;;;;;;;;14.25;13.75;;;;;24.27;49.49;100688.75;5078679;27;46073;-43
2021/07/27 04:01:49;;;;;;;;;12.50;12.00;;;;;24.22;49.53;100693.53;5078512;28;45430;-46
2021/07/27 04:04:18;;;;;;;;;14.50;13.25;;;;;24.21;49.16;100689.19;5079122;28;45303;-45
2021/07/27 04:06:45;;;;;;;;;13.25;12.25;;;;;24.21;49.68;100694.47;5079341;28;45446;-46
2021/07/27 04:09:10;;;;;;;;;15.50;12.25;;;;;24.20;49.44;100692.78;5078847;28;46328;-48
2021/07/27 04:11:36;;;;;;;;;12.50;12.50;;;;;24.21;49.48;100691.84;5078542;28;45329;-46
2021/07/27 04:14:04;;;;;;;;;12.25;12.00;;;;;24.21;49.43;100689.19;5078037;28;55550;-46
2021/07/27 04:16:30;;;;;;;;;14.25;13.50;;;;;24.19;49.82;100696.44;5078667;27;45485;-50
2021/07/27 04:18:55;;;;;;;;;13.75;10.75;;;;;24.21;49.69;100689.19;5078251;28;45423;-46
2021/07/27 04:21:20;;;;;;;;;14.75;12.25;;;;;24.21;49.63;100694.47;5078370;28;45435;-46
2021/07/27 04:23:46;;;;;;;;;14.25;13.25;;;;;24.17;49.77;100693.03;5077566;28;45387;-45
2021/07/27 04:26:11;;;;;;;;;16.00;15.00;;;;;24.12;49.79;100703.09;5078768;28;45533;-47
2021/07/27 04:28:37;;;;;;;;;15.00;14.00;;;;;24.00;50.04;100703.03;5078076;27;45286;-44
2021/07/27 04:31:02;;;;;;;;;14.50;14.00;;;;;23.98;50.28;100709.41;5078123;27;45443;-44
2021/07/27 04:33:27;;;;;;;;;13.50;13.00;;;;;23.96;50.24;100706.03;5077947;28;45828;-48
2021/07/27 04:35:53;;;;;;;;;16.33;14.33;;;;;23.92;50.29;100711.50;5078357;27;45153;-46
2021/07/27 04:38:21;;;;;;;;;16.25;15.50;;;;;23.92;49.98;100711.50;5077859;27;46116;-47
2021/07/27 04:40:46;;;;;;;;;13.25;12.75;;;;;23.91;50.05;100708.97;5078295;28;45544;-49
2021/07/27 04:43:14;;;;;;;;;14.50;12.00;;;;;23.91;50.07;100706.31;5078332;28;45457;-46
2021/07/27 04:45:40;;;;;;;;;14.25;13.25;;;;;23.90;50.06;100696.69;5077695;27;45363;-47
2021/07/27 04:48:05;;;;;;;;;14.75;14.75;;;;;23.88;50.14;100690.66;5077705;28;46034;-45
2021/07/27 04:50:31;;;;;;;;;15.50;13.25;;;;;23.77;50.42;100684.34;5077811;28;45439;-46
2021/07/27 04:53:08;;;;;;;;;14.50;14.25;;;;;23.68;50.47;100686.81;5077912;28;45318;-45
2021/07/27 04:55:34;;;;;;;;;15.25;13.25;;;;;23.59;50.45;100683.84;5077974;28;45380;-46
2021/07/27 04:58:03;;;;;;;;;15.50;14.25;;;;;23.60;50.91;100690.00;5077577;27;45487;-44
2021/07/27 05:00:29;;;;;;;;;14.25;13.25;;;;;23.61;50.74;100702.28;5077695;28;45981;-44
2021/07/27 05:02:57;;;;;;;;;15.00;14.25;;;;;23.61;50.52;100707.56;5076527;28;45398;-46
2021/07/27 05:05:22;;;;;;;;;15.25;15.25;;;;;23.61;50.96;100700.47;5077940;27;45328;-45
2021/07/27 05:07:48;;;;;;;;;15.50;13.75;;;;;23.63;50.82;100695.09;5077705;28;46009;-45
2021/07/27 05:10:13;;;;;;;;;16.25;13.75;;;;;23.63;50.94;100692.44;5077746;28;45225;-45
2021/07/27 05:12:39;;;;;;;;;18.25;15.75;;;;;23.62;50.70;100683.63;5077547;28;45343;-46
2021/07/27 05:15:05;;;;;;;;;14.75;12.50;;;;;23.59;50.93;100683.84;5077705;28;45595;-46
2021/07/27 05:17:31;;;;;;;;;13.25;11.50;;;;;23.58;50.80;100683.97;5077066;28;46407;-45
2021/07/27 05:19:56;;;;;;;;;17.25;11.75;;;;;23.55;50.79;100694.75;5077267;27;45375;-46
2021/07/27 05:22:24;;;;;;;;;15.50;14.50;;;;;23.56;50.80;100699.09;5077568;28;45860;-45
2021/07/27 05:24:51;;;;;;;;;14.00;14.00;;;;;23.58;51.02;100703.34;5077704;28;45412;-46
2021/07/27 05:27:18;;;;;;;;;16.25;15.75;;;;;23.61;51.07;100710.22;5077257;28;46337;-45
2021/07/27 05:29:44;;;;;;;;;13.75;12.50;;;;;23.62;50.77;100703.97;5077217;28;45295;-49
2021/07/27 05:32:09;;;;;;;;;16.00;13.25;;;;;23.61;50.65;100703.09;5077390;28;45360;-48
2021/07/27 05:34:34;;;;;;;;;14.25;14.00;;;;;23.60;50.72;100705.88;5076181;28;45298;-46
2021/07/27 05:37:00;;;;;;;;;15.75;14.50;;;;;23.55;51.05;100700.91;5077016;27;46025;-45
2021/07/27 05:39:25;;;;;;;;;16.75;14.00;;;;;23.48;50.86;100704.94;5077232;28;45255;-46
2021/07/27 05:41:50;;;;;;;;;15.25;15.25;;;;;23.50;50.94;100723.34;5077046;28;45152;-47
2021/07/27 05:44:15;;;;;;;;;15.75;12.75;;;;;23.53;51.08;100723.97;5077691;27;45197;-46
2021/07/27 05:46:41;;;;;;;;;18.25;16.50;;;;;23.57;51.07;100729.88;5076976;28;45304;-49
2021/07/27 05:49:09;;;;;;;;;10.75;10.75;;;;;23.60;50.86;100727.03;5077035;27;45553;-45
2021/07/27 05:51:35;;;;;;;;;18.75;17.25;;;;;23.62;50.83;100725.13;5092933;27;45946;-46
2021/07/27 05:54:00;;;;;;;;;15.75;14.50;;;;;23.63;50.68;100732.13;5077191;28;45525;-46
2021/07/27 05:56:25;;;;;;;;;13.25;11.25;;;;;23.63;50.55;100729.47;5076571;28;46260;-45
2021/07/27 05:58:51;;;;;;;;;15.50;13.75;;;;;23.64;50.29;100733.81;5076745;28;45457;-45
2021/07/27 06:01:16;;;;;;;;;18.75;15.25;;;;;23.65;50.62;100740.78;5077256;28;45189;-45
2021/07/27 06:03:41;;;;;;;;;13.75;13.75;;;;;23.65;50.40;100748.72;5076902;28;45209;-44
2021/07/27 06:06:07;;;;;;;;;13.25;12.00;;;;;23.64;50.63;100747.03;5076636;28;46165;-48
2021/07/27 06:08:32;;;;;;;;;15.50;11.25;;;;;23.63;50.89;100748.81;5092289;27;46118;-43
2021/07/27 06:10:57;;;;;;;;;13.50;12.50;;;;;23.63;50.48;100745.34;5076783;28;45244;-45
2021/07/27 06:13:23;;;;;;;;;12.00;12.00;;;;;23.63;50.57;100748.00;5076483;28;45583;-46
2021/07/27 06:15:48;;;;;;;;;14.00;13.25;;;;;23.66;50.61;100754.88;5076782;28;45281;-45
2021/07/27 06:18:13;;;;;;;;;15.75;14.25;;;;;23.67;50.54;100751.25;5076556;28;45381;-45
2021/07/27 06:20:39;;;;;;;;;15.00;14.25;;;;;23.65;50.13;100763.75;5076719;28;45383;-47
2021/07/27 06:23:05;;;;;;;;;16.00;15.00;;;;;23.60;50.08;100758.78;5076715;27;45494;-48
2021/07/27 06:25:31;;;;;;;;;16.50;13.50;;;;;23.57;50.52;100749.28;5076231;27;46474;-48
2021/07/27 06:27:56;;;;;;;;;11.75;11.25;;;;;23.53;50.27;100741.66;5075994;28;45452;-45
2021/07/27 06:30:22;;;;;;;;;15.00;13.25;;;;;23.52;50.62;100755.84;5076760;28;45376;-45
2021/07/27 06:32:48;;;;;;;;;15.00;13.75;;;;;23.51;50.16;100738.25;5076853;28;45449;-48
2021/07/27 06:35:14;;;;;;;;;13.00;12.25;;;;;23.51;50.50;100740.91;5076053;28;45973;-45
2021/07/27 06:37:39;;;;;;;;;14.00;14.00;;;;;23.52;50.34;100751.38;5076146;28;45326;-49
2021/07/27 06:40:05;;;;;;;;;15.50;14.00;;;;;23.50;50.45;100758.56;5076336;28;45332;-50
2021/07/27 06:42:30;;;;;;;;;15.50;14.25;;;;;23.50;50.64;100766.50;5076520;28;45264;-46
2021/07/27 06:44:56;;;;;;;;;12.00;9.50;;;;;23.46;50.66;100768.50;5076027;27;47915;-48
2021/07/27 06:47:21;;;;;;;;;19.25;14.00;;;;;23.45;50.86;100758.06;5075969;28;56982;-46
2021/07/27 06:49:46;;;;;;;;;14.25;14.00;;;;;23.45;50.84;100763.34;5076084;28;45664;-44
2021/07/27 06:52:12;;;;;;;;;13.25;12.00;;;;;23.43;50.59;100768.72;5076306;28;45454;-45
2021/07/27 06:54:37;;;;;;;;;14.75;14.75;;;;;23.46;50.56;100772.97;5075972;28;46669;-48
2021/07/27 06:57:02;;;;;;;;;12.75;12.00;;;;;23.45;50.42;100772.13;5075927;28;45355;-46
2021/07/27 06:59:28;;;;;;;;;12.75;12.75;;;;;23.49;50.69;100771.91;5076045;28;45250;-48
2021/07/27 07:01:53;;;;;;;;;13.75;12.25;;;;;23.50;50.51;100774.44;5076406;28;45506;-46
2021/07/27 07:04:18;;;;;;;;;11.75;11.75;;;;;23.50;50.57;100773.59;5075707;28;46848;-49
2021/07/27 07:06:44;;;;;;;;;15.00;14.75;;;;;23.49;50.70;100764.81;5075884;28;45671;-46
2021/07/27 07:09:09;;;;;;;;;15.25;14.25;;;;;23.50;50.55;100774.44;5075909;28;45225;-46
2021/07/27 07:11:35;;;;;;;;;15.25;14.50;;;;;23.51;50.77;100777.94;5076082;28;45378;-47
2021/07/27 07:14:01;;;;;;;;;16.25;12.00;;;;;23.51;50.87;100777.94;5075729;28;47168;-44
2021/07/27 07:16:26;;;;;;;;;14.25;13.50;;;;;23.50;50.42;100776.25;5075760;27;45408;-46
2021/07/27 07:18:52;;;;;;;;;15.50;12.50;;;;;23.49;50.65;100775.38;5076154;28;45377;-47
2021/07/27 07:21:17;;;;;;;;;13.25;12.50;;;;;23.46;50.28;100767.69;5075941;28;45443;-47
2021/07/27 07:23:43;;;;;;;;;15.75;13.75;;;;;23.48;50.73;100781.66;5075419;28;46208;-46
2021/07/27 07:26:08;;;;;;;;;14.00;12.25;;;;;23.49;50.38;100779.84;5077646;28;45570;-45
2021/07/27 07:28:35;;;;;;;;;15.50;15.50;;;;;23.50;50.41;100785.00;5079358;28;45510;-45
2021/07/27 07:31:01;;;;;;;;;14.00;13.75;;;;;23.51;50.55;100785.88;5079356;27;45541;-45
2021/07/27 07:33:27;;;;;;;;;16.50;13.25;;;;;23.49;50.57;100787.78;5079108;28;45299;-45
2021/07/27 07:35:52;;;;;;;;;16.00;13.50;;;;;23.48;50.31;100781.66;5079036;28;45313;-45
2021/07/27 07:38:17;;;;;;;;;13.50;11.25;;;;;23.45;50.21;100777.41;5079067;27;45369;-46
2021/07/27 07:40:43;;;;;;;;;12.75;12.75;;;;;23.43;50.08;100778.47;5078855;28;47194;-46
2021/07/27 07:43:08;;;;;;;;;18.25;15.50;;;;;23.44;50.40;100774.88;5078959;27;46053;-45
2021/07/27 07:45:35;;;;;;;;;12.75;11.75;;;;;23.45;50.07;100781.84;5078765;27;45297;-46
2021/07/27 07:48:01;;;;;;;;;12.00;12.00;;;;;23.41;50.03;100773.28;5079163;27;45418;-45
2021/07/27 07:50:29;;;;;;;;;16.50;13.50;;;;;23.40;50.33;100784.81;5079338;28;45541;-45
2021/07/27 07:53:01;;;;;;;;;12.25;12.25;;;;;23.35;50.43;100775.50;5060735;27;47066;-45
2021/07/27 07:55:28;;;;;;;;;11.25;11.25;;;;;23.32;50.54;100787.13;5078820;28;45803;-46
2021/07/27 07:57:54;;;;;;;;;17.00;14.50;;;;;23.29;50.19;100792.63;5079046;27;45357;-46
2021/07/27 08:00:19;;;;;;;;;14.75;12.25;;;;;23.25;50.08;100796.44;5078930;28;45323;-46
2021/07/27 08:02:45;;;;;;;;;14.50;11.75;;;;;23.24;50.62;100790.31;5075077;28;45589;-43
2021/07/27 08:05:10;;;;;;;;;17.00;14.50;;;;;23.27;50.90;100795.38;5092712;27;45514;-45
2021/07/27 08:07:35;;;;;;;;;13.00;13.00;;;;;23.29;50.58;100792.63;5078202;28;45329;-46
2021/07/27 08:10:01;;;;;;;;;19.50;13.75;;;;;23.29;50.48;100784.72;5078534;28;45404;-41
2021/07/27 08:12:26;;;;;;;;;12.75;11.75;;;;;23.27;50.81;100789.25;5078377;28;46109;-43
2021/07/27 08:14:51;;;;;;;;;15.25;13.00;;;;;23.27;50.64;100799.81;5077706;28;49826;-44
2021/07/27 08:17:17;;;;;;;;;16.00;15.00;;;;;23.26;50.51;100790.19;5059709;28;45236;-43
2021/07/27 08:19:42;;;;;;;;;13.50;12.75;;;;;23.25;50.53;100797.28;5078595;28;45248;-42
2021/07/27 08:22:07;;;;;;;;;15.50;14.00;;;;;23.23;50.47;100787.75;5077649;28;50495;-42
2021/07/27 08:24:34;;;;;;;;;15.75;13.00;;;;;23.25;50.75;100799.06;5077802;28;45241;-42
2021/07/27 08:27:00;;;;;;;;;15.00;14.75;;;;;23.22;50.84;100794.84;5077738;28;45382;-41
2021/07/27 08:29:25;;;;;;;;;20.00;13.25;;;;;23.23;50.81;100790.41;5078464;28;45687;-43
2021/07/27 08:31:50;;;;;;;;;14.75;13.50;;;;;23.27;51.02;100795.38;5076620;28;45405;-45
2021/07/27 08:34:18;;;;;;;;;10.25;9.25;;;;;23.27;50.78;100794.53;5076766;28;45367;-43
2021/07/27 08:36:46;;;;;;;;;16.00;14.75;;;;;23.25;50.85;100791.16;5077651;28;45417;-41
2021/07/27 08:39:13;;;;;;;;;13.75;11.75;;;;;23.24;51.11;100781.50;5074817;28;45859;-45
2021/07/27 08:41:39;;;;;;;;;17.25;13.75;;;;;23.24;50.95;100777.09;5076109;28;46072;-44
2021/07/27 08:44:16;;;;;;;;;16.75;13.75;;;;;23.26;51.11;100755.81;5077754;28;45241;-43
2021/07/27 08:46:41;;;;;;;;;16.75;15.50;;;;;23.20;51.36;100764.19;5077780;28;45355;-45
2021/07/27 08:49:07;;;;;;;;;14.75;13.25;;;;;23.14;51.43;100779.47;5077996;28;45687;-44
2021/07/27 08:51:32;;;;;;;;;16.25;12.00;;;;;23.14;51.52;100779.47;5077422;28;45956;-45
2021/07/27 08:53:58;;;;;;;;;13.00;11.00;;;;;23.15;51.47;100778.53;5077349;28;45368;-44
2021/07/27 08:56:23;;;;;;;;;11.50;11.50;;;;;23.17;51.77;100773.13;5077296;28;52213;-41
2021/07/27 08:58:48;;;;;;;;;12.50;11.50;;;;;23.23;51.47;100782.47;5077830;28;45310;-41
2021/07/27 09:01:22;;;;;;;;;13.25;13.25;;;;;23.28;51.78;100785.66;5076909;28;49397;-43
2021/07/27 09:03:50;;;;;;;;;15.50;15.50;;;;;23.29;51.97;100787.34;5077227;28;45349;-42
2021/07/27 09:06:22;;;;;;;;;12.50;11.75;;;;;23.33;51.64;100791.47;5077234;28;45791;-42
2021/07/27 09:08:47;;;;;;;;;12.00;12.00;;;;;23.35;52.24;100792.22;5077529;28;45452;-49
2021/07/27 09:11:16;;;;;;;;;13.50;12.00;;;;;23.38;52.02;100797.31;5077083;28;45415;-41
2021/07/27 09:13:54;;;;;;;;;14.25;12.75;;;;;23.35;52.11;100794.84;5076057;28;45452;-43
2021/07/27 09:16:19;;;;;;;;;13.75;13.75;;;;;23.29;52.16;100798.75;5077119;28;45240;-43
2021/07/27 09:18:44;;;;;;;;;11.25;11.25;;;;;23.28;52.40;100796.22;5076932;28;45295;-45
2021/07/27 09:21:10;;;;;;;;;15.00;12.00;;;;;23.28;52.23;100796.22;5076696;28;45415;-44
2021/07/27 09:23:41;;;;;;;;;13.50;13.25;;;;;23.31;52.75;100798.69;5076896;28;45263;-45
2021/07/27 09:26:10;;;;;;;;;14.50;13.00;;;;;23.32;52.64;100797.69;5076842;28;45472;-42
2021/07/27 09:28:35;;;;;;;;;12.25;12.25;;;;;23.30;52.73;100789.03;5077178;28;45260;-42
2021/07/27 09:31:01;;;;;;;;;15.75;13.25;;;;;23.28;52.67;100786.50;5076521;28;45782;-45
2021/07/27 09:33:29;;;;;;;;;16.25;13.50;;;;;23.27;53.00;100792.72;5076797;28;45810;-46
2021/07/27 09:35:55;;;;;;;;;16.00;12.25;;;;;23.28;52.95;100790.94;5093204;27;45831;-46
2021/07/27 09:38:21;;;;;;;;;19.00;15.00;;;;;23.30;53.09;100789.03;5077117;28;45585;-41
2021/07/27 09:40:50;;;;;;;;;10.75;10.75;;;;;23.28;52.92;100783.00;5075924;28;46065;-43
2021/07/27 09:43:26;;;;;;;;;13.25;13.25;;;;;23.25;52.97;100793.78;5076354;28;45336;-44
2021/07/27 09:45:55;;;;;;;;;17.75;13.75;;;;;23.20;53.37;100787.97;5058587;28;45426;-41
2021/07/27 09:48:21;;;;;;;;;14.75;14.25;;;;;23.14;53.56;100795.31;5066290;28;45480;-46
2021/07/27 09:50:49;;;;;;;;;17.75;17.00;;;;;23.13;53.38;100795.44;5065380;28;46174;-45
2021/07/27 09:53:15;;;;;;;;;15.50;14.50;;;;;23.12;53.60;100785.81;5065739;28;45949;-43
2021/07/27 09:55:41;;;;;;;;;16.75;16.75;;;;;23.11;53.70;100789.41;5076412;27;45493;-45
2021/07/27 09:58:07;;;;;;;;;13.00;13.00;;;;;23.09;53.74;100805.38;5075989;28;45528;-42
2021/07/27 10:00:39;;;;;;;;;14.00;14.00;;;;;23.08;53.61;100800.19;5073322;28;46169;-41
2021/07/27 10:03:05;;;;;;;;;13.00;13.00;;;;;23.06;53.81;100808.22;5075333;28;45467;-42
2021/07/27 10:05:33;;;;;;;;;13.75;13.00;;;;;23.07;53.57;100809.06;5076178;28;45411;-45
2021/07/27 10:07:59;;;;;;;;;15.25;14.75;;;;;23.07;53.75;100815.22;5076313;28;45412;-43
2021/07/27 10:10:36;;;;;;;;;19.00;14.50;;;;;23.10;53.55;100806.22;5075807;28;46880;-44
2021/07/27 10:13:06;;;;;;;;;15.00;13.50;;;;;23.10;54.00;100808.84;5076072;28;45847;-45
2021/07/27 10:15:39;;;;;;;;;17.00;15.00;;;;;23.12;54.10;100814.91;5075843;28;45506;-43
2021/07/27 10:18:04;;;;;;;;;14.75;14.75;;;;;23.11;54.23;100815.84;5076802;28;45470;-45
2021/07/27 10:20:29;;;;;;;;;12.50;12.25;;;;;23.09;54.48;100813.31;5076409;28;46229;-48
2021/07/27 10:22:55;;;;;;;;;16.00;13.00;;;;;23.07;54.43;100815.22;5057942;28;45527;-44
2021/07/27 10:25:20;;;;;;;;;15.50;14.75;;;;;23.06;54.19;100824.09;5076595;28;45194;-44
2021/07/27 10:27:53;;;;;;;;;18.50;14.75;;;;;23.05;54.15;100814.47;5076390;27;45300;-45
2021/07/27 10:30:32;;;;;;;;;14.50;12.50;;;;;23.08;54.26;100814.25;5076065;28;45250;-47
2021/07/27 10:32:58;;;;;;;;;15.50;15.00;;;;;23.12;54.32;100812.25;5076471;28;45469;-45
2021/07/27 10:35:31;;;;;;;;;14.25;11.50;;;;;23.14;54.16;100811.19;5076154;28;45327;-46
2021/07/27 10:38:14;;;;;;;;;13.50;12.00;;;;;23.14;54.23;100816.47;5076850;28;45367;-46
2021/07/27 10:40:40;;;;;;;;;18.75;14.50;;;;;23.17;54.13;100810.13;5076196;28;46075;-46
2021/07/27 10:43:09;;;;;;;;;14.75;12.75;;;;;23.18;53.84;100811.81;5076317;28;45368;-43
2021/07/27 10:45:35;;;;;;;;;13.75;13.25;;;;;23.18;54.13;100811.81;5075960;28;45319;-45
2021/07/27 10:48:01;;;;;;;;;14.00;13.25;;;;;23.20;53.95;100809.13;5076430;28;45506;-44
2021/07/27 10:50:33;;;;;;;;;13.00;12.75;;;;;23.22;54.27;100801.91;5075666;28;45665;-47
2021/07/27 10:53:06;;;;;;;;;15.25;10.75;;;;;23.24;54.17;100797.38;5075983;28;45279;-45
2021/07/27 10:55:33;;;;;;;;;15.00;11.00;;;;;23.24;54.09;100800.03;5076119;28;45355;-47
2021/07/27 10:58:01;;;;;;;;;13.75;12.50;;;;;23.28;54.12;100791.78;5076197;28;45297;-45
2021/07/27 11:00:31;;;;;;;;;16.50;13.00;;;;;23.34;54.22;100787.03;5076828;28;46439;-43
2021/07/27 11:02:57;;;;;;;;;20.75;14.50;;;;;23.33;54.06;100786.19;5079337;27;45496;-51
2021/07/27 11:05:27;;;;;;;;;17.00;13.50;;;;;23.34;54.41;100792.31;5079658;28;45402;-50
2021/07/27 11:07:53;;;;;;;;;15.00;13.75;;;;;23.34;54.27;100787.03;5061239;28;45524;-48
2021/07/27 11:10:24;;;;;;;;;17.75;14.25;;;;;23.37;54.42;100795.59;5078978;27;46492;-47
2021/07/27 11:12:49;;;;;;;;;13.50;13.00;;;;;23.38;54.66;100786.72;5079111;28;45338;-44
2021/07/27 11:15:19;;;;;;;;;13.00;12.00;;;;;23.41;54.55;100778.59;5078971;27;45308;-44
2021/07/27 11:18:05;;;;;;;;;14.25;12.00;;;;;23.45;54.39;100779.22;5079105;27;45613;-44
2021/07/27 11:20:32;;;;;;;;;10.75;10.00;;;;;23.47;54.44;100785.25;5078875;27;45232;-45
2021/07/27 11:23:07;;;;;;;;;28.75;20.50;;;;;23.46;54.14;100784.38;5078756;28;45876;-44
2021/07/27 11:25:33;;;;;;;;;13.00;12.50;;;;;23.47;54.39;100782.59;5079299;28;45468;-49
2021/07/27 11:28:12;;;;;;;;;18.25;12.75;;;;;23.43;54.31;100789.88;5078718;27;45442;-48
2021/07/27 11:30:39;;;;;;;;;18.25;16.50;;;;;23.41;54.44;100797.09;5078906;28;45332;-46